PWSweather.com
Personal Weather Stations
Station Observations
METEOC500
Santo Antonio, FunchalPT 2020

Santo AntonioFunchalPT 2020

Lat: 32.678227, Lon: -16.945054

Elevation: 1669.94751

Station Type: WH Series

High Low Average
Temperature 70.3°F21.3°C 63.0°F17.2°C 66.3°F19.1°C
Dew Point 69.1°F20.6°C 54.3°F12.4°C 62.5°F16.9°C
Winds 8.1 mph 13.0 kmh Calm Calm 3.0 mph WSW4.8 kmh WSW
Wind Gusts 12.5 mph20.1 kmh -- 7.0 mph11.3 kmh
Humidity 97% 73% 88%
Pressure 30.10 in1019.3 mb 29.98 in1015.2 mb -
Precipitation 0.09 in2.3 mm - -
Hour Temp Dew Point Humidity Winds Wind Gusts Pressure Precip Precip Rate Daily Precip Total
12:01 AM 64.0°F17.8°C 57.7°F14.3°C 80% 2.9 mph NNW4.7 kmh NNW 7.6 mph12.2 kmh 30.02 in1016.6 mb 0.00 in0.0 mm 0.00 in0.0 mm 0.00 in0.0 mm
12:16 AM 63.5°F17.5°C 57.2°F14.0°C 80% 1.8 mph NNW2.9 kmh NNW 7.6 mph12.2 kmh 30.01 in1016.3 mb 0.00 in0.0 mm 0.00 in0.0 mm 0.00 in0.0 mm
12:31 AM 63.3°F17.4°C 57.0°F13.9°C 80% 3.8 mph NNW6.1 kmh NNW 7.6 mph12.2 kmh 30.01 in1016.3 mb 0.00 in0.0 mm 0.00 in0.0 mm 0.00 in0.0 mm
12:46 AM 63.0°F17.2°C 56.7°F13.7°C 80% 3.4 mph NNW5.5 kmh NNW 7.6 mph12.2 kmh 30.01 in1016.3 mb 0.00 in0.0 mm 0.00 in0.0 mm 0.00 in0.0 mm
01:01 AM 63.0°F17.2°C 55.6°F13.1°C 77% 3.8 mph NNW6.1 kmh NNW 10.1 mph16.3 kmh 30.01 in1016.3 mb 0.00 in0.0 mm 0.00 in0.0 mm 0.00 in0.0 mm
01:16 AM 63.5°F17.5°C 56.8°F13.8°C 79% 3.8 mph N6.1 kmh N 7.6 mph12.2 kmh 30.00 in1015.9 mb 0.00 in0.0 mm 0.00 in0.0 mm 0.00 in0.0 mm
01:31 AM 63.3°F17.4°C 55.9°F13.3°C 77% 2.5 mph NNW4.0 kmh NNW 4.9 mph7.9 kmh 30.00 in1015.9 mb 0.00 in0.0 mm 0.00 in0.0 mm 0.00 in0.0 mm
01:46 AM 63.3°F17.4°C 55.9°F13.3°C 77% 3.1 mph NNW5.0 kmh NNW 7.6 mph12.2 kmh 29.99 in1015.6 mb 0.00 in0.0 mm 0.00 in0.0 mm 0.00 in0.0 mm
02:01 AM 63.3°F17.4°C 55.6°F13.1°C 76% 5.6 mph NNW9.0 kmh NNW 7.6 mph12.2 kmh 29.99 in1015.6 mb 0.00 in0.0 mm 0.00 in0.0 mm 0.00 in0.0 mm
02:16 AM 63.3°F17.4°C 55.6°F13.1°C 76% 4.7 mph NNW7.6 kmh NNW 10.1 mph16.3 kmh 29.99 in1015.6 mb 0.00 in0.0 mm 0.00 in0.0 mm 0.00 in0.0 mm
02:31 AM 63.5°F17.5°C 55.0°F12.8°C 74% 4.5 mph NNW7.2 kmh NNW 7.6 mph12.2 kmh 29.99 in1015.6 mb 0.00 in0.0 mm 0.00 in0.0 mm 0.00 in0.0 mm
02:46 AM 63.3°F17.4°C 55.2°F12.9°C 75% 4.7 mph N7.6 kmh N 7.6 mph12.2 kmh 29.98 in1015.2 mb 0.00 in0.0 mm 0.00 in0.0 mm 0.00 in0.0 mm
03:01 AM 63.1°F17.3°C 54.3°F12.4°C 73% 4.5 mph NNW7.2 kmh NNW 7.6 mph12.2 kmh 29.98 in1015.2 mb 0.00 in0.0 mm 0.00 in0.0 mm 0.00 in0.0 mm
03:16 AM 63.1°F17.3°C 54.7°F12.6°C 74% 3.4 mph NNW5.5 kmh NNW 7.6 mph12.2 kmh 29.98 in1015.2 mb 0.00 in0.0 mm 0.00 in0.0 mm 0.00 in0.0 mm
03:31 AM 63.0°F17.2°C 55.2°F12.9°C 76% 4.7 mph NNW7.6 kmh NNW 10.1 mph16.3 kmh 29.98 in1015.2 mb 0.00 in0.0 mm 0.00 in0.0 mm 0.00 in0.0 mm
03:46 AM 63.1°F17.3°C 54.7°F12.6°C 74% 4.5 mph N7.2 kmh N 7.6 mph12.2 kmh 29.98 in1015.2 mb 0.00 in0.0 mm 0.00 in0.0 mm 0.00 in0.0 mm
04:01 AM 63.3°F17.4°C 54.9°F12.7°C 74% 6.0 mph NNW9.7 kmh NNW 7.6 mph12.2 kmh 29.98 in1015.2 mb 0.00 in0.0 mm 0.00 in0.0 mm 0.00 in0.0 mm
04:16 AM 63.5°F17.5°C 55.0°F12.8°C 74% 4.5 mph NNW7.2 kmh NNW 7.6 mph12.2 kmh 29.98 in1015.2 mb 0.00 in0.0 mm 0.00 in0.0 mm 0.00 in0.0 mm
04:31 AM 63.7°F17.6°C 55.2°F12.9°C 74% 3.8 mph NNW6.1 kmh NNW 7.6 mph12.2 kmh 29.98 in1015.2 mb 0.00 in0.0 mm 0.00 in0.0 mm 0.00 in0.0 mm
04:46 AM 63.5°F17.5°C 55.8°F13.2°C 76% 4.5 mph NNW7.2 kmh NNW 7.6 mph12.2 kmh 29.98 in1015.2 mb 0.00 in0.0 mm 0.00 in0.0 mm 0.00 in0.0 mm
05:01 AM 63.3°F17.4°C 55.2°F12.9°C 75% 3.1 mph NNW5.0 kmh NNW 7.6 mph12.2 kmh 29.99 in1015.6 mb 0.00 in0.0 mm 0.00 in0.0 mm 0.00 in0.0 mm
05:16 AM 63.5°F17.5°C 56.1°F13.4°C 77% 5.6 mph NNW9.0 kmh NNW 10.1 mph16.3 kmh 29.99 in1015.6 mb 0.00 in0.0 mm 0.00 in0.0 mm 0.00 in0.0 mm
05:31 AM 63.7°F17.6°C 57.0°F13.9°C 79% 3.4 mph NW5.5 kmh NW 10.1 mph16.3 kmh 29.99 in1015.6 mb 0.00 in0.0 mm 0.00 in0.0 mm 0.00 in0.0 mm
05:46 AM 63.9°F17.7°C 57.6°F14.2°C 80% 4.0 mph NW6.4 kmh NW 7.6 mph12.2 kmh 29.99 in1015.6 mb 0.00 in0.0 mm 0.00 in0.0 mm 0.00 in0.0 mm
06:01 AM 63.9°F17.7°C 58.6°F14.8°C 83% 3.4 mph NNW5.5 kmh NNW 7.6 mph12.2 kmh 29.99 in1015.6 mb 0.00 in0.0 mm 0.00 in0.0 mm 0.00 in0.0 mm
06:16 AM 64.2°F17.9°C 58.6°F14.8°C 82% 3.4 mph NNW5.5 kmh NNW 10.1 mph16.3 kmh 29.98 in1015.2 mb 0.00 in0.0 mm 0.00 in0.0 mm 0.00 in0.0 mm
06:31 AM 64.6°F18.1°C 59.0°F15.0°C 82% 3.4 mph N5.5 kmh N 4.9 mph7.9 kmh 29.99 in1015.6 mb 0.00 in0.0 mm 0.00 in0.0 mm 0.00 in0.0 mm
06:46 AM 64.6°F18.1°C 59.0°F15.0°C 82% Calm Calm 7.6 mph12.2 kmh 29.99 in1015.6 mb 0.00 in0.0 mm 0.00 in0.0 mm 0.00 in0.0 mm
07:01 AM 64.8°F18.2°C 59.2°F15.1°C 82% 1.8 mph NNW2.9 kmh NNW 4.9 mph7.9 kmh 29.99 in1015.6 mb 0.00 in0.0 mm 0.00 in0.0 mm 0.00 in0.0 mm
07:16 AM 64.6°F18.1°C 58.6°F14.8°C 81% 1.3 mph NW2.1 kmh NW 4.9 mph7.9 kmh 30.00 in1015.9 mb 0.00 in0.0 mm 0.00 in0.0 mm 0.00 in0.0 mm
07:32 AM 65.1°F18.4°C 58.8°F14.9°C 80% 3.4 mph NNW5.5 kmh NNW 4.9 mph7.9 kmh 30.00 in1015.9 mb 0.00 in0.0 mm 0.00 in0.0 mm 0.00 in0.0 mm
07:47 AM 66.7°F19.3°C 62.1°F16.7°C 85% Calm Calm 7.6 mph12.2 kmh 30.00 in1015.9 mb 0.00 in0.0 mm 0.00 in0.0 mm 0.00 in0.0 mm
08:02 AM 68.0°F20.0°C 63.7°F17.6°C 86% Calm Calm -- 30.01 in1016.3 mb 0.00 in0.0 mm 0.00 in0.0 mm 0.00 in0.0 mm
08:17 AM 68.4°F20.2°C 64.0°F17.8°C 86% Calm Calm 4.9 mph7.9 kmh 30.01 in1016.3 mb 0.00 in0.0 mm 0.00 in0.0 mm 0.00 in0.0 mm
08:32 AM 69.1°F20.6°C 65.1°F18.4°C 87% 2.9 mph ESE4.7 kmh ESE 7.6 mph12.2 kmh 30.02 in1016.6 mb 0.00 in0.0 mm 0.00 in0.0 mm 0.00 in0.0 mm
08:47 AM 69.4°F20.8°C 66.0°F18.9°C 89% 1.3 mph SE2.1 kmh SE 7.6 mph12.2 kmh 30.01 in1016.3 mb 0.00 in0.0 mm 0.00 in0.0 mm 0.00 in0.0 mm
09:02 AM 69.3°F20.7°C 66.2°F19.0°C 90% Calm Calm 4.9 mph7.9 kmh 30.02 in1016.6 mb 0.00 in0.0 mm 0.00 in0.0 mm 0.00 in0.0 mm
09:17 AM 69.1°F20.6°C 66.0°F18.9°C 90% 0.7 mph SSE1.1 kmh SSE 4.9 mph7.9 kmh 30.02 in1016.6 mb 0.00 in0.0 mm 0.00 in0.0 mm 0.00 in0.0 mm
09:32 AM 69.4°F20.8°C 66.0°F18.9°C 89% 2.9 mph SE4.7 kmh SE 4.9 mph7.9 kmh 30.03 in1016.9 mb 0.00 in0.0 mm 0.00 in0.0 mm 0.00 in0.0 mm
09:47 AM 69.8°F21.0°C 66.4°F19.1°C 89% 0.9 mph ESE1.4 kmh ESE 7.6 mph12.2 kmh 30.03 in1016.9 mb 0.00 in0.0 mm 0.00 in0.0 mm 0.00 in0.0 mm
10:02 AM 70.0°F21.1°C 67.5°F19.7°C 92% 0.9 mph SE1.4 kmh SE 7.6 mph12.2 kmh 30.04 in1017.3 mb 0.00 in0.0 mm 0.00 in0.0 mm 0.00 in0.0 mm
10:17 AM 70.0°F21.1°C 67.8°F19.9°C 93% Calm Calm 7.6 mph12.2 kmh 30.03 in1016.9 mb 0.00 in0.0 mm 0.00 in0.0 mm 0.00 in0.0 mm
10:32 AM 70.2°F21.2°C 68.4°F20.2°C 94% 4.0 mph SE6.4 kmh SE 4.9 mph7.9 kmh 30.03 in1016.9 mb 0.00 in0.0 mm 0.00 in0.0 mm 0.00 in0.0 mm
10:47 AM 70.2°F21.2°C 68.7°F20.4°C 95% Calm Calm 10.1 mph16.3 kmh 30.03 in1016.9 mb 0.02 in0.5 mm 0.08 in2.0 mm 0.02 in0.5 mm
11:02 AM 69.8°F21.0°C 68.4°F20.2°C 95% 6.5 mph ESE10.5 kmh ESE 10.1 mph16.3 kmh 30.03 in1016.9 mb 0.04 in1.0 mm 0.03 in0.8 mm 0.04 in1.0 mm
11:17 AM 69.6°F20.9°C 68.4°F20.2°C 96% Calm Calm 7.6 mph12.2 kmh 30.02 in1016.6 mb 0.05 in1.3 mm 0.04 in1.0 mm 0.05 in1.3 mm
11:32 AM 69.6°F20.9°C 68.2°F20.1°C 95% Calm Calm 2.5 mph4.0 kmh 30.03 in1016.9 mb 0.06 in1.5 mm 0.04 in1.0 mm 0.06 in1.5 mm
11:47 AM 70.0°F21.1°C 68.7°F20.4°C 96% Calm Calm 4.9 mph7.9 kmh 30.02 in1016.6 mb 0.05 in1.3 mm 0.00 in0.0 mm 0.07 in1.8 mm
12:02 PM 70.3°F21.3°C 69.1°F20.6°C 96% 0.2 mph SSW0.3 kmh SSW 7.6 mph12.2 kmh 30.01 in1016.3 mb 0.02 in0.5 mm 0.00 in0.0 mm 0.07 in1.8 mm
12:17 PM 70.2°F21.2°C 68.9°F20.5°C 96% 1.3 mph SW2.1 kmh SW 10.1 mph16.3 kmh 30.02 in1016.6 mb 0.02 in0.5 mm 0.00 in0.0 mm 0.07 in1.8 mm
12:32 PM 69.8°F21.0°C 68.5°F20.3°C 96% 0.9 mph SSE1.4 kmh SSE 7.6 mph12.2 kmh 30.01 in1016.3 mb 0.01 in0.3 mm 0.00 in0.0 mm 0.07 in1.8 mm
12:47 PM 69.8°F21.0°C 68.5°F20.3°C 96% 2.2 mph SE3.5 kmh SE 4.9 mph7.9 kmh 30.01 in1016.3 mb 0.00 in0.0 mm 0.00 in0.0 mm 0.07 in1.8 mm
01:03 PM 69.4°F20.8°C 68.2°F20.1°C 96% 7.2 mph S11.6 kmh S 10.1 mph16.3 kmh 30.01 in1016.3 mb 0.00 in0.0 mm 0.00 in0.0 mm 0.07 in1.8 mm
01:18 PM 68.5°F20.3°C 67.3°F19.6°C 96% 1.3 mph SW2.1 kmh SW 7.6 mph12.2 kmh 30.01 in1016.3 mb 0.00 in0.0 mm 0.00 in0.0 mm 0.07 in1.8 mm
01:33 PM 68.0°F20.0°C 66.7°F19.3°C 96% 2.2 mph S3.5 kmh S 4.9 mph7.9 kmh 30.01 in1016.3 mb 0.01 in0.3 mm 0.04 in1.0 mm 0.08 in2.0 mm
01:48 PM 68.2°F20.1°C 66.9°F19.4°C 96% 0.9 mph S1.4 kmh S 4.9 mph7.9 kmh 30.01 in1016.3 mb 0.01 in0.3 mm 0.00 in0.0 mm 0.08 in2.0 mm
02:03 PM 68.5°F20.3°C 67.3°F19.6°C 96% 0.7 mph SW1.1 kmh SW 4.9 mph7.9 kmh 30.01 in1016.3 mb 0.01 in0.3 mm 0.00 in0.0 mm 0.08 in2.0 mm
02:18 PM 68.9°F20.5°C 67.6°F19.8°C 96% 1.6 mph S2.6 kmh S 7.6 mph12.2 kmh 30.01 in1016.3 mb 0.01 in0.3 mm 0.00 in0.0 mm 0.08 in2.0 mm
02:33 PM 69.1°F20.6°C 67.8°F19.9°C 96% 6.0 mph SSW9.7 kmh SSW 10.1 mph16.3 kmh 30.01 in1016.3 mb 0.00 in0.0 mm 0.00 in0.0 mm 0.08 in2.0 mm
02:48 PM 68.9°F20.5°C 68.0°F20.0°C 97% 5.4 mph SSW8.7 kmh SSW 7.6 mph12.2 kmh 30.00 in1015.9 mb 0.00 in0.0 mm 0.00 in0.0 mm 0.08 in2.0 mm
03:03 PM 68.7°F20.4°C 67.5°F19.7°C 96% 3.4 mph SSW5.5 kmh SSW 7.6 mph12.2 kmh 30.00 in1015.9 mb 0.01 in0.3 mm 0.01 in0.3 mm 0.09 in2.3 mm
03:18 PM 68.2°F20.1°C 66.9°F19.4°C 96% 0.9 mph S1.4 kmh S 7.6 mph12.2 kmh 30.00 in1015.9 mb 0.01 in0.3 mm 0.00 in0.0 mm 0.09 in2.3 mm
03:33 PM 68.0°F20.0°C 66.7°F19.3°C 96% 3.8 mph S6.1 kmh S 7.6 mph12.2 kmh 30.00 in1015.9 mb 0.01 in0.3 mm 0.00 in0.0 mm 0.09 in2.3 mm
03:48 PM 68.0°F20.0°C 66.6°F19.2°C 95% 4.0 mph SE6.4 kmh SE 7.6 mph12.2 kmh 30.00 in1015.9 mb 0.01 in0.3 mm 0.00 in0.0 mm 0.09 in2.3 mm
04:03 PM 68.2°F20.1°C 66.7°F19.3°C 95% 3.4 mph SSW5.5 kmh SSW 7.6 mph12.2 kmh 30.00 in1015.9 mb 0.00 in0.0 mm 0.00 in0.0 mm 0.09 in2.3 mm
04:18 PM 68.4°F20.2°C 66.9°F19.4°C 95% 1.3 mph SSW2.1 kmh SSW 4.9 mph7.9 kmh 30.00 in1015.9 mb 0.00 in0.0 mm 0.00 in0.0 mm 0.09 in2.3 mm
04:33 PM 68.4°F20.2°C 66.6°F19.2°C 94% 1.3 mph SSW2.1 kmh SSW 7.6 mph12.2 kmh 30.01 in1016.3 mb 0.00 in0.0 mm 0.00 in0.0 mm 0.09 in2.3 mm
04:48 PM 68.4°F20.2°C 66.6°F19.2°C 94% 1.8 mph S2.9 kmh S 4.9 mph7.9 kmh 30.01 in1016.3 mb 0.00 in0.0 mm 0.00 in0.0 mm 0.09 in2.3 mm
05:03 PM 68.2°F20.1°C 66.4°F19.1°C 94% 1.8 mph S2.9 kmh S 7.6 mph12.2 kmh 30.01 in1016.3 mb 0.00 in0.0 mm 0.00 in0.0 mm 0.09 in2.3 mm
05:19 PM 68.0°F20.0°C 66.2°F19.0°C 94% 3.8 mph SSW6.1 kmh SSW 4.9 mph7.9 kmh 30.01 in1016.3 mb 0.00 in0.0 mm 0.00 in0.0 mm 0.09 in2.3 mm
05:34 PM 67.6°F19.8°C 65.8°F18.8°C 94% Calm Calm 4.9 mph7.9 kmh 30.01 in1016.3 mb 0.00 in0.0 mm 0.00 in0.0 mm 0.09 in2.3 mm
05:49 PM 67.3°F19.6°C 65.5°F18.6°C 94% Calm Calm -- 30.01 in1016.3 mb 0.00 in0.0 mm 0.00 in0.0 mm 0.09 in2.3 mm
06:04 PM 67.3°F19.6°C 65.5°F18.6°C 94% Calm Calm -- 30.02 in1016.6 mb 0.00 in0.0 mm 0.00 in0.0 mm 0.09 in2.3 mm
06:19 PM 67.5°F19.7°C 65.7°F18.7°C 94% Calm Calm -- 30.02 in1016.6 mb 0.00 in0.0 mm 0.00 in0.0 mm 0.09 in2.3 mm
06:34 PM 67.5°F19.7°C 65.7°F18.7°C 94% Calm Calm 2.5 mph4.0 kmh 30.02 in1016.6 mb 0.00 in0.0 mm 0.00 in0.0 mm 0.09 in2.3 mm
06:49 PM 67.5°F19.7°C 66.0°F18.9°C 95% Calm Calm -- 30.02 in1016.6 mb 0.00 in0.0 mm 0.00 in0.0 mm 0.09 in2.3 mm
07:04 PM 67.1°F19.5°C 65.3°F18.5°C 94% Calm Calm 2.5 mph4.0 kmh 30.03 in1016.9 mb 0.00 in0.0 mm 0.00 in0.0 mm 0.09 in2.3 mm
07:19 PM 66.9°F19.4°C 65.5°F18.6°C 95% Calm Calm 2.5 mph4.0 kmh 30.03 in1016.9 mb 0.00 in0.0 mm 0.00 in0.0 mm 0.09 in2.3 mm
07:34 PM 66.9°F19.4°C 65.5°F18.6°C 95% Calm Calm 2.5 mph4.0 kmh 30.04 in1017.3 mb 0.00 in0.0 mm 0.00 in0.0 mm 0.09 in2.3 mm
07:49 PM 66.7°F19.3°C 65.3°F18.5°C 95% Calm Calm 2.5 mph4.0 kmh 30.04 in1017.3 mb 0.00 in0.0 mm 0.00 in0.0 mm 0.09 in2.3 mm
08:04 PM 66.6°F19.2°C 64.8°F18.2°C 94% Calm Calm 2.5 mph4.0 kmh 30.05 in1017.6 mb 0.00 in0.0 mm 0.00 in0.0 mm 0.09 in2.3 mm
08:19 PM 66.2°F19.0°C 64.4°F18.0°C 94% 3.8 mph NNW6.1 kmh NNW 4.9 mph7.9 kmh 30.05 in1017.6 mb 0.00 in0.0 mm 0.00 in0.0 mm 0.09 in2.3 mm
08:34 PM 66.0°F18.9°C 64.2°F17.9°C 94% 1.3 mph NNW2.1 kmh NNW 4.9 mph7.9 kmh 30.06 in1017.9 mb 0.00 in0.0 mm 0.00 in0.0 mm 0.09 in2.3 mm
08:49 PM 65.8°F18.8°C 64.0°F17.8°C 94% Calm Calm 4.9 mph7.9 kmh 30.06 in1017.9 mb 0.00 in0.0 mm 0.00 in0.0 mm 0.09 in2.3 mm
09:04 PM 65.5°F18.6°C 63.7°F17.6°C 94% 2.2 mph NNW3.5 kmh NNW 4.9 mph7.9 kmh 30.06 in1017.9 mb 0.00 in0.0 mm 0.00 in0.0 mm 0.09 in2.3 mm
09:19 PM 64.9°F18.3°C 62.6°F17.0°C 92% 6.0 mph N9.7 kmh N 10.1 mph16.3 kmh 30.07 in1018.3 mb 0.00 in0.0 mm 0.00 in0.0 mm 0.09 in2.3 mm
09:34 PM 64.2°F17.9°C 61.2°F16.2°C 90% 4.7 mph NNW7.6 kmh NNW 10.1 mph16.3 kmh 30.08 in1018.6 mb 0.00 in0.0 mm 0.00 in0.0 mm 0.09 in2.3 mm
09:50 PM 64.0°F17.8°C 60.8°F16.0°C 89% 6.9 mph NNW11.1 kmh NNW 10.1 mph16.3 kmh 30.09 in1019.0 mb 0.00 in0.0 mm 0.00 in0.0 mm 0.09 in2.3 mm
10:05 PM 64.0°F17.8°C 60.4°F15.8°C 88% 4.7 mph NW7.6 kmh NW 10.1 mph16.3 kmh 30.09 in1019.0 mb 0.00 in0.0 mm 0.00 in0.0 mm 0.09 in2.3 mm
10:20 PM 63.9°F17.7°C 60.6°F15.9°C 89% 6.0 mph N9.7 kmh N 10.1 mph16.3 kmh 30.09 in1019.0 mb 0.00 in0.0 mm 0.00 in0.0 mm 0.09 in2.3 mm
10:35 PM 63.7°F17.6°C 59.7°F15.4°C 87% 6.5 mph NNW10.5 kmh NNW 10.1 mph16.3 kmh 30.09 in1019.0 mb 0.00 in0.0 mm 0.00 in0.0 mm 0.09 in2.3 mm
10:50 PM 63.5°F17.5°C 59.2°F15.1°C 86% 5.6 mph NNW9.0 kmh NNW 10.1 mph16.3 kmh 30.09 in1019.0 mb 0.00 in0.0 mm 0.00 in0.0 mm 0.09 in2.3 mm
11:05 PM 63.5°F17.5°C 59.2°F15.1°C 86% 5.4 mph NNW8.7 kmh NNW 10.1 mph16.3 kmh 30.09 in1019.0 mb 0.00 in0.0 mm 0.00 in0.0 mm 0.08 in2.0 mm
11:20 PM 63.3°F17.4°C 58.8°F14.9°C 85% 8.1 mph NNW13.0 kmh NNW 10.1 mph16.3 kmh 30.10 in1019.3 mb 0.00 in0.0 mm 0.00 in0.0 mm 0.08 in2.0 mm
11:35 PM 63.5°F17.5°C 58.6°F14.8°C 84% 7.2 mph NW11.6 kmh NW 12.5 mph20.1 kmh 30.10 in1019.3 mb 0.00 in0.0 mm 0.00 in0.0 mm 0.08 in2.0 mm
11:50 PM 63.7°F17.6°C 59.0°F15.0°C 85% 4.5 mph NNW7.2 kmh NNW 10.1 mph16.3 kmh 30.09 in1019.0 mb 0.00 in0.0 mm 0.00 in0.0 mm 0.08 in2.0 mm